createdAt,value
2017-10-01T00:00:48.658Z,9.73
2017-10-01T00:01:48.814Z,9.73
2017-10-01T00:02:48.965Z,9.82
2017-10-01T00:03:49.122Z,9.68
2017-10-01T00:04:49.274Z,9.77
2017-10-01T00:05:49.428Z,9.76
2017-10-01T00:06:49.584Z,9.74
2017-10-01T00:07:49.737Z,9.68
2017-10-01T00:08:49.891Z,9.73
2017-10-01T00:09:50.045Z,9.76
2017-10-01T00:10:50.212Z,9.77
2017-10-01T00:11:50.356Z,9.72
2017-10-01T00:12:50.509Z,9.76
2017-10-01T00:13:50.661Z,9.82
2017-10-01T00:14:50.820Z,9.74
2017-10-01T00:15:50.971Z,9.82
2017-10-01T00:16:51.129Z,9.83
2017-10-01T00:17:51.285Z,9.77
2017-10-01T00:18:51.443Z,9.68
2017-10-01T00:19:51.600Z,9.76
2017-10-01T00:20:51.759Z,9.76
2017-10-01T00:21:51.914Z,9.76
2017-10-01T00:22:52.066Z,9.76
2017-10-01T00:23:52.220Z,9.73
2017-10-01T00:24:52.376Z,9.82
2017-10-01T00:25:52.530Z,9.79
2017-10-01T00:26:52.690Z,9.76
2017-10-01T00:27:52.840Z,9.68
2017-10-01T00:28:52.994Z,9.68
2017-10-01T00:29:53.148Z,9.65
2017-10-01T00:30:53.306Z,9.74
2017-10-01T00:31:53.463Z,9.73
2017-10-01T00:32:53.618Z,9.74
2017-10-01T00:33:53.773Z,9.65
2017-10-01T00:34:53.932Z,9.69
2017-10-01T00:35:54.086Z,9.69
2017-10-01T00:36:54.243Z,9.68
2017-10-01T00:37:54.397Z,9.65
2017-10-01T00:38:54.553Z,9.61
2017-10-01T00:39:54.707Z,9.65
2017-10-01T00:40:54.862Z,9.65
2017-10-01T00:41:55.022Z,9.65
2017-10-01T00:42:55.176Z,9.66
2017-10-01T00:43:55.329Z,9.68
2017-10-01T00:44:55.487Z,9.62
2017-10-01T00:45:55.642Z,9.61
2017-10-01T00:46:55.795Z,9.56
2017-10-01T00:47:55.953Z,9.56
2017-10-01T00:48:56.111Z,9.54
2017-10-01T00:49:56.263Z,9.56
2017-10-01T00:50:56.417Z,9.56
2017-10-01T00:51:56.575Z,9.58
2017-10-01T00:52:56.733Z,9.61
2017-10-01T00:53:56.891Z,9.59
2017-10-01T00:54:57.045Z,9.61
2017-10-01T00:55:57.203Z,9.62
2017-10-01T00:56:57.358Z,9.61
2017-10-01T00:57:57.512Z,9.73
2017-10-01T00:58:57.669Z,9.64
2017-10-01T00:59:57.823Z,9.65
2017-10-01T01:00:57.979Z,9.69
2017-10-01T01:01:58.134Z,9.58
2017-10-01T01:02:58.290Z,9.66
2017-10-01T01:03:58.445Z,9.66
2017-10-01T01:04:58.600Z,9.74
2017-10-01T01:05:58.756Z,9.73
2017-10-01T01:06:58.912Z,9.69
2017-10-01T01:07:59.065Z,9.68
2017-10-01T01:08:59.221Z,9.73
2017-10-01T01:09:59.377Z,9.80
2017-10-01T01:10:59.532Z,9.87
2017-10-01T01:11:59.696Z,9.73
2017-10-01T01:12:59.848Z,9.80
2017-10-01T01:14:00.003Z,9.76
2017-10-01T01:15:00.159Z,9.73
2017-10-01T01:16:00.315Z,9.83
2017-10-01T01:17:00.470Z,9.74
2017-10-01T01:18:00.624Z,9.79
2017-10-01T01:19:00.790Z,9.72
2017-10-01T01:20:00.945Z,9.80
2017-10-01T01:21:01.094Z,9.86
2017-10-01T01:22:01.252Z,9.83
2017-10-01T01:23:01.407Z,9.86
2017-10-01T01:24:01.564Z,9.82
2017-10-01T01:25:01.721Z,9.91
2017-10-01T01:26:01.876Z,9.86
2017-10-01T01:27:02.042Z,9.80
2017-10-01T01:28:02.190Z,9.83
2017-10-01T01:29:02.350Z,9.87
2017-10-01T01:30:02.503Z,9.89
2017-10-01T01:31:02.660Z,9.82
2017-10-01T01:32:02.813Z,9.92
2017-10-01T01:33:02.970Z,9.98
2017-10-01T01:34:03.125Z,9.97
2017-10-01T01:35:03.285Z,10.02
2017-10-01T01:36:03.439Z,9.95
2017-10-01T01:37:03.592Z,9.98
2017-10-01T01:38:03.748Z,9.97
2017-10-01T01:39:03.904Z,9.98
2017-10-01T01:40:04.061Z,9.98
2017-10-01T01:41:04.219Z,9.99
2017-10-01T01:42:04.375Z,9.94
2017-10-01T01:43:04.531Z,9.95
2017-10-01T01:44:04.689Z,9.98
2017-10-01T01:45:04.847Z,9.98
2017-10-01T01:46:05.005Z,10.07
2017-10-01T01:47:05.162Z,10.01
2017-10-01T01:48:05.318Z,10.01
2017-10-01T01:49:05.476Z,10.10
2017-10-01T01:50:05.638Z,10.15
2017-10-01T01:51:05.790Z,10.13
2017-10-01T01:52:05.950Z,10.15
2017-10-01T01:53:06.106Z,10.13
2017-10-01T01:54:06.263Z,10.15
2017-10-01T01:55:06.420Z,10.17
2017-10-01T01:56:06.574Z,10.10
2017-10-01T01:57:06.732Z,10.16
2017-10-01T01:58:06.888Z,10.19
2017-10-01T01:59:07.045Z,10.16
2017-10-01T02:00:07.205Z,10.19
2017-10-01T02:01:07.361Z,10.23
2017-10-01T02:02:07.518Z,10.17
2017-10-01T02:03:07.676Z,10.09
2017-10-01T02:04:07.832Z,10.22
2017-10-01T02:05:07.990Z,10.15
2017-10-01T02:06:08.146Z,10.16
2017-10-01T02:07:08.306Z,10.12
2017-10-01T02:08:08.462Z,10.22
2017-10-01T02:09:08.623Z,10.12
2017-10-01T02:10:08.778Z,10.17
2017-10-01T02:11:08.930Z,10.26
2017-10-01T02:12:09.087Z,10.12
2017-10-01T02:13:09.242Z,10.26
2017-10-01T02:14:09.396Z,10.25
2017-10-01T02:15:09.550Z,10.22
2017-10-01T02:16:09.707Z,10.20
2017-10-01T02:17:09.864Z,10.13
2017-10-01T02:18:10.016Z,10.16
2017-10-01T02:19:10.173Z,10.13
2017-10-01T02:20:10.331Z,10.13
2017-10-01T02:21:10.485Z,10.25
2017-10-01T02:22:10.640Z,10.19
2017-10-01T02:23:10.797Z,10.25
2017-10-01T02:24:10.952Z,10.25
2017-10-01T02:25:11.108Z,10.20
2017-10-01T02:26:11.259Z,10.31
2017-10-01T02:27:11.412Z,10.33
2017-10-01T02:28:11.567Z,10.23
2017-10-01T02:29:11.723Z,10.23
2017-10-01T02:30:11.876Z,10.28
2017-10-01T02:31:12.029Z,10.20
2017-10-01T02:32:12.185Z,10.26
2017-10-01T02:33:12.341Z,10.22
2017-10-01T02:34:12.492Z,10.20
2017-10-01T02:35:12.648Z,10.23
2017-10-01T02:36:12.802Z,10.23
2017-10-01T02:37:12.958Z,10.30
2017-10-01T02:38:13.113Z,10.22
2017-10-01T02:39:13.267Z,10.23
2017-10-01T02:40:13.424Z,10.20
2017-10-01T02:41:13.581Z,10.28
2017-10-01T02:42:13.738Z,10.17
2017-10-01T02:43:13.896Z,10.20
2017-10-01T02:44:14.058Z,10.25
2017-10-01T02:45:14.216Z,10.35
2017-10-01T02:46:14.366Z,10.20
2017-10-01T02:47:14.523Z,10.31
2017-10-01T02:48:14.678Z,10.20
2017-10-01T02:49:14.832Z,10.25
2017-10-01T02:50:14.988Z,10.22
2017-10-01T02:51:15.142Z,10.20
2017-10-01T02:52:15.299Z,10.26
2017-10-01T02:53:15.459Z,10.25
2017-10-01T02:54:15.611Z,10.31
2017-10-01T02:55:15.767Z,10.35
2017-10-01T02:56:15.924Z,10.35
2017-10-01T02:57:16.083Z,10.33
2017-10-01T02:58:16.237Z,10.35
2017-10-01T02:59:16.394Z,10.31
2017-10-01T03:00:16.549Z,10.34
2017-10-01T03:01:16.706Z,10.28
2017-10-01T03:02:16.863Z,10.22
2017-10-01T03:03:17.019Z,10.25
2017-10-01T03:04:17.175Z,10.31
2017-10-01T03:05:17.331Z,10.22
2017-10-01T03:06:17.484Z,10.35
2017-10-01T03:07:17.642Z,10.31
2017-10-01T03:08:17.798Z,10.34
2017-10-01T03:09:17.955Z,10.25
2017-10-01T03:10:18.115Z,10.23
2017-10-01T03:11:18.271Z,10.17
2017-10-01T03:12:18.428Z,10.20
2017-10-01T03:13:18.588Z,10.26
2017-10-01T03:14:18.740Z,10.23
2017-10-01T03:15:18.895Z,10.28
2017-10-01T03:16:19.053Z,10.35
2017-10-01T03:17:19.206Z,10.25
2017-10-01T03:18:19.361Z,10.20
2017-10-01T03:19:19.517Z,10.19
2017-10-01T03:20:19.671Z,10.19
2017-10-01T03:21:19.826Z,10.25
2017-10-01T03:22:19.979Z,10.30
2017-10-01T03:23:20.134Z,10.19
2017-10-01T03:24:20.291Z,10.22
2017-10-01T03:25:20.478Z,10.19
2017-10-01T03:26:20.605Z,10.20
2017-10-01T03:27:20.758Z,10.30
2017-10-01T03:28:20.918Z,10.26
2017-10-01T03:29:21.070Z,10.20
2017-10-01T03:30:21.227Z,10.16
2017-10-01T03:31:21.382Z,10.20
2017-10-01T03:32:21.535Z,10.20
2017-10-01T03:33:21.695Z,10.19
2017-10-01T03:34:28.396Z,10.26
2017-10-01T03:35:21.999Z,10.19
2017-10-01T03:36:22.156Z,10.25
2017-10-01T03:37:22.312Z,10.12
2017-10-01T03:38:22.466Z,10.19
2017-10-01T03:39:22.621Z,10.17
2017-10-01T03:40:22.781Z,10.23
2017-10-01T03:41:22.937Z,10.15
2017-10-01T03:42:23.094Z,10.10
2017-10-01T03:43:23.254Z,10.12
2017-10-01T03:44:23.412Z,10.22
2017-10-01T03:45:23.575Z,10.22
2017-10-01T03:46:23.731Z,10.20
2017-10-01T03:47:23.887Z,10.12
2017-10-01T03:48:24.047Z,10.10
2017-10-01T03:49:24.205Z,10.10
2017-10-01T03:50:24.364Z,10.17
2017-10-01T03:51:24.532Z,10.19
2017-10-01T03:52:24.690Z,10.19
2017-10-01T03:53:24.847Z,10.09
2017-10-01T03:54:25.010Z,10.13
2017-10-01T03:55:25.170Z,10.13
2017-10-01T03:56:25.333Z,10.12
2017-10-01T03:57:25.495Z,10.22
2017-10-01T03:58:25.662Z,10.17
2017-10-01T03:59:25.821Z,10.10
2017-10-01T04:00:25.986Z,10.19
2017-10-01T04:01:26.149Z,10.10
2017-10-01T04:02:26.317Z,10.15
2017-10-01T04:03:26.477Z,10.23
2017-10-01T04:04:26.641Z,10.16
2017-10-01T04:05:26.805Z,10.28
2017-10-01T04:06:26.967Z,10.16
2017-10-01T04:07:27.137Z,10.20
2017-10-01T04:08:27.293Z,10.19
2017-10-01T04:09:27.457Z,10.17
2017-10-01T04:10:27.620Z,10.16
2017-10-01T04:11:27.784Z,10.16
2017-10-01T04:12:27.947Z,10.13
2017-10-01T04:13:28.111Z,10.15
2017-10-01T04:14:28.276Z,10.10
2017-10-01T04:15:28.438Z,10.09
2017-10-01T04:16:28.602Z,10.07
2017-10-01T04:17:28.764Z,10.10
2017-10-01T04:18:28.927Z,10.07
2017-10-01T04:19:29.093Z,10.10
2017-10-01T04:20:29.253Z,10.15
2017-10-01T04:21:29.415Z,10.07
2017-10-01T04:22:29.579Z,10.09
2017-10-01T04:23:29.738Z,10.02
2017-10-01T04:24:29.901Z,9.99
2017-10-01T04:25:30.064Z,9.94
2017-10-01T04:26:30.225Z,9.94
2017-10-01T04:27:30.387Z,9.94
2017-10-01T04:28:30.548Z,9.98
2017-10-01T04:29:30.709Z,9.83
2017-10-01T04:30:30.869Z,9.82
2017-10-01T04:31:31.030Z,9.84
2017-10-01T04:32:31.191Z,9.83
2017-10-01T04:33:31.353Z,9.92
2017-10-01T04:34:31.512Z,9.87
2017-10-01T04:35:31.672Z,9.95
2017-10-01T04:36:31.830Z,9.92
2017-10-01T04:37:31.997Z,10.02
2017-10-01T04:38:32.153Z,9.94
2017-10-01T04:39:32.317Z,9.99
2017-10-01T04:40:32.474Z,9.95
2017-10-01T04:41:32.635Z,9.89
2017-10-01T04:42:32.795Z,9.89
2017-10-01T04:43:32.954Z,9.87
2017-10-01T04:44:33.115Z,9.84
2017-10-01T04:45:33.278Z,9.89
2017-10-01T04:46:33.435Z,9.84
2017-10-01T04:47:33.615Z,9.87
2017-10-01T04:48:33.754Z,9.84
2017-10-01T04:49:33.914Z,9.84
2017-10-01T04:50:34.073Z,9.89
2017-10-01T04:51:34.236Z,9.89
2017-10-01T04:52:34.394Z,9.83
2017-10-01T04:53:34.552Z,9.86
2017-10-01T04:54:34.713Z,9.82
2017-10-01T04:55:34.875Z,9.76
2017-10-01T04:56:35.035Z,9.82
2017-10-01T04:57:35.198Z,9.79
2017-10-01T04:58:35.361Z,9.74
2017-10-01T04:59:35.524Z,9.82
2017-10-01T05:00:35.684Z,9.79
2017-10-01T05:01:35.850Z,9.80
2017-10-01T05:02:36.011Z,9.68
2017-10-01T05:03:36.171Z,9.80
2017-10-01T05:04:36.332Z,9.76
2017-10-01T05:05:36.504Z,9.76
2017-10-01T05:06:36.657Z,9.76
2017-10-01T05:07:36.821Z,9.76
2017-10-01T05:08:36.982Z,9.74
2017-10-01T05:09:37.146Z,9.84
2017-10-01T05:10:37.308Z,9.74
2017-10-01T05:11:37.469Z,9.76
2017-10-01T05:12:37.632Z,9.76
2017-10-01T05:13:37.797Z,9.79
2017-10-01T05:14:37.955Z,9.82
2017-10-01T05:15:38.119Z,9.74
2017-10-01T05:16:38.279Z,9.72
2017-10-01T05:17:38.442Z,9.76
2017-10-01T05:18:38.605Z,9.76
2017-10-01T05:19:38.764Z,9.77
2017-10-01T05:20:38.925Z,9.82
2017-10-01T05:21:39.085Z,9.82
2017-10-01T05:22:39.246Z,9.68
2017-10-01T05:23:39.407Z,9.86
2017-10-01T05:24:39.566Z,9.86
2017-10-01T05:25:39.730Z,9.73
2017-10-01T05:26:39.885Z,9.69
2017-10-01T05:27:40.046Z,9.72
2017-10-01T05:28:40.206Z,9.72
2017-10-01T05:29:40.364Z,9.72
2017-10-01T05:30:40.523Z,9.72
2017-10-01T05:31:40.682Z,9.72
2017-10-01T05:32:40.844Z,9.65
2017-10-01T05:33:41.001Z,9.65
2017-10-01T05:34:41.160Z,9.66
2017-10-01T05:35:41.320Z,9.69
2017-10-01T05:36:41.482Z,9.69
2017-10-01T05:37:41.642Z,9.74
2017-10-01T05:38:41.799Z,9.69
2017-10-01T05:39:41.960Z,9.66
2017-10-01T05:40:42.122Z,9.76
2017-10-01T05:41:42.280Z,9.76
2017-10-01T05:42:42.437Z,9.74
2017-10-01T05:43:42.595Z,9.66
2017-10-01T05:44:42.758Z,9.72
2017-10-01T05:45:42.918Z,9.62
2017-10-01T05:46:43.074Z,9.69
2017-10-01T05:47:43.234Z,9.68
2017-10-01T05:48:43.394Z,9.61
2017-10-01T05:49:43.555Z,9.58
2017-10-01T05:50:43.716Z,9.64
2017-10-01T05:51:43.881Z,9.58
2017-10-01T05:52:44.038Z,9.50
2017-10-01T05:53:44.199Z,9.51
2017-10-01T05:54:44.359Z,9.55
2017-10-01T05:55:44.521Z,9.51
2017-10-01T05:56:44.684Z,9.54
2017-10-01T05:57:44.845Z,9.48
2017-10-01T05:58:45.006Z,9.44
2017-10-01T05:59:45.178Z,9.48
2017-10-01T06:00:45.324Z,9.54
2017-10-01T06:01:45.483Z,9.58
2017-10-01T06:02:45.642Z,9.56
2017-10-01T06:03:45.802Z,9.51
2017-10-01T06:04:45.965Z,9.58
2017-10-01T06:05:46.121Z,9.56
2017-10-01T06:06:46.277Z,9.61
2017-10-01T06:07:46.436Z,9.59
2017-10-01T06:08:46.595Z,9.56
2017-10-01T06:09:46.756Z,9.55
2017-10-01T06:10:46.914Z,9.54
2017-10-01T06:11:47.070Z,9.56
2017-10-01T06:12:47.229Z,9.47
2017-10-01T06:13:47.395Z,9.46
2017-10-01T06:14:47.550Z,9.56
2017-10-01T06:15:47.713Z,9.55
2017-10-01T06:16:47.874Z,9.56
2017-10-01T06:17:48.035Z,9.56
2017-10-01T06:18:48.193Z,9.58
2017-10-01T06:19:48.354Z,9.56
2017-10-01T06:20:48.514Z,9.61
2017-10-01T06:21:48.674Z,9.55
2017-10-01T06:22:48.833Z,9.56
2017-10-01T06:23:48.991Z,9.51
2017-10-01T06:24:49.154Z,9.59
2017-10-01T06:25:49.309Z,9.56
2017-10-01T06:26:49.468Z,9.56
2017-10-01T06:27:49.629Z,9.51
2017-10-01T06:28:49.786Z,9.56
2017-10-01T06:29:49.951Z,9.59
2017-10-01T06:30:50.105Z,9.59
2017-10-01T06:31:50.263Z,9.72
2017-10-01T06:32:50.426Z,9.68
2017-10-01T06:33:50.593Z,9.73
2017-10-01T06:34:50.745Z,9.73
2017-10-01T06:35:50.902Z,9.73
2017-10-01T06:36:51.059Z,9.65
2017-10-01T06:37:51.219Z,9.66
2017-10-01T06:38:51.378Z,9.65
2017-10-01T06:39:51.539Z,9.66
2017-10-01T06:40:51.695Z,9.69
2017-10-01T06:41:51.855Z,9.73
2017-10-01T06:42:52.011Z,9.65
2017-10-01T06:43:52.170Z,9.74
2017-10-01T06:44:52.326Z,9.74
2017-10-01T06:45:52.485Z,9.73
2017-10-01T06:46:52.644Z,9.74
2017-10-01T06:47:52.799Z,9.82
2017-10-01T06:48:52.957Z,9.76
2017-10-01T06:49:53.117Z,9.77
2017-10-01T06:50:53.269Z,9.73
2017-10-01T06:51:53.429Z,9.77
2017-10-01T06:52:53.586Z,9.68
2017-10-01T06:53:53.742Z,9.72
2017-10-01T06:54:53.895Z,9.76
2017-10-01T06:55:54.054Z,9.77
2017-10-01T06:56:54.213Z,9.76
2017-10-01T06:57:54.368Z,9.80
2017-10-01T06:58:54.524Z,9.79
2017-10-01T06:59:54.683Z,9.76
2017-10-01T07:00:54.838Z,9.80
2017-10-01T07:01:54.997Z,9.77
2017-10-01T07:02:55.153Z,9.74
2017-10-01T07:03:55.309Z,9.80
2017-10-01T07:04:55.466Z,9.83
2017-10-01T07:05:55.624Z,9.86
2017-10-01T07:06:55.778Z,9.86
2017-10-01T07:07:55.936Z,9.84
2017-10-01T07:08:56.090Z,9.98
2017-10-01T07:09:56.248Z,9.98
2017-10-01T07:10:56.403Z,9.91
2017-10-01T07:11:56.564Z,9.98
2017-10-01T07:12:56.718Z,9.98
2017-10-01T07:13:56.876Z,9.94
2017-10-01T07:14:57.035Z,10.01
2017-10-01T07:15:57.192Z,9.95
2017-10-01T07:16:57.349Z,9.95
2017-10-01T07:17:57.505Z,10.01
2017-10-01T07:18:57.667Z,9.97
2017-10-01T07:19:57.827Z,9.97
2017-10-01T07:20:57.978Z,10.05
2017-10-01T07:21:58.138Z,10.07
2017-10-01T07:22:58.293Z,9.97
2017-10-01T07:23:58.451Z,10.02
2017-10-01T07:24:58.607Z,10.07
2017-10-01T07:25:58.766Z,10.02
2017-10-01T07:26:58.929Z,10.07
2017-10-01T07:27:59.082Z,10.02
2017-10-01T07:28:59.238Z,10.07
2017-10-01T07:29:59.399Z,10.02
2017-10-01T07:30:59.552Z,10.13
2017-10-01T07:31:59.709Z,10.05
2017-10-01T07:32:59.866Z,10.04
2017-10-01T07:34:00.025Z,10.10
2017-10-01T07:35:00.180Z,10.12
2017-10-01T07:36:00.337Z,10.10
2017-10-01T07:37:00.492Z,10.10
2017-10-01T07:38:00.651Z,10.12
2017-10-01T07:39:00.805Z,10.16
2017-10-01T07:40:00.963Z,10.17
2017-10-01T07:41:01.121Z,10.17
2017-10-01T07:42:01.276Z,10.20
2017-10-01T07:43:01.439Z,10.25
2017-10-01T07:44:01.592Z,10.31
2017-10-01T07:45:01.752Z,10.22
2017-10-01T07:46:01.909Z,10.34
2017-10-01T07:47:02.066Z,10.30
2017-10-01T07:48:02.221Z,10.23
2017-10-01T07:49:02.383Z,10.33
2017-10-01T07:50:02.541Z,10.38
2017-10-01T07:51:02.701Z,10.46
2017-10-01T07:52:02.857Z,10.57
2017-10-01T07:53:03.020Z,10.71
2017-10-01T07:54:03.181Z,10.79
2017-10-01T07:55:03.340Z,10.84
2017-10-01T07:56:03.500Z,10.79
2017-10-01T07:57:03.661Z,10.82
2017-10-01T07:58:03.820Z,10.79
2017-10-01T07:59:03.980Z,10.90
2017-10-01T08:00:04.143Z,10.79
2017-10-01T08:01:04.323Z,10.81
2017-10-01T08:02:04.462Z,10.75
2017-10-01T08:03:04.619Z,10.81
2017-10-01T08:04:04.779Z,10.78
2017-10-01T08:05:04.940Z,10.76
2017-10-01T08:06:05.199Z,10.72
2017-10-01T08:07:05.256Z,10.78
2017-10-01T08:08:05.437Z,10.78
2017-10-01T08:09:05.576Z,10.81
2017-10-01T08:10:05.737Z,10.82
2017-10-01T08:11:05.899Z,10.78
2017-10-01T08:12:06.059Z,10.87
2017-10-01T08:13:06.214Z,10.86
2017-10-01T08:14:06.379Z,10.93
2017-10-01T08:15:06.535Z,10.93
2017-10-01T08:16:06.698Z,10.92
2017-10-01T08:17:06.852Z,10.90
2017-10-01T08:18:07.021Z,10.99
2017-10-01T08:19:07.175Z,10.93
2017-10-01T08:20:07.339Z,11.00
2017-10-01T08:21:07.495Z,10.97
2017-10-01T08:22:07.655Z,11.07
2017-10-01T08:23:07.813Z,11.05
2017-10-01T08:24:07.979Z,11.14
2017-10-01T08:25:08.140Z,11.10
2017-10-01T08:26:08.293Z,11.14
2017-10-01T08:27:08.456Z,11.15
2017-10-01T08:28:08.610Z,11.17
2017-10-01T08:29:08.771Z,11.26
2017-10-01T08:30:08.929Z,11.32
2017-10-01T08:31:09.090Z,11.36
2017-10-01T08:32:09.250Z,11.44
2017-10-01T08:33:09.406Z,11.43
2017-10-01T08:34:09.564Z,11.43
2017-10-01T08:35:09.721Z,11.50
2017-10-01T08:36:09.847Z,11.50
2017-10-01T08:37:09.970Z,11.62
2017-10-01T08:38:10.092Z,11.63
2017-10-01T08:39:10.211Z,11.72
2017-10-01T08:40:10.331Z,11.81
2017-10-01T08:41:10.452Z,11.95
2017-10-01T08:42:10.576Z,12.29
2017-10-01T08:43:10.700Z,12.67
2017-10-01T08:44:10.816Z,13.13
2017-10-01T08:45:10.934Z,13.71
2017-10-01T08:46:11.053Z,13.99
2017-10-01T08:47:11.173Z,14.28
2017-10-01T08:48:11.294Z,14.54
2017-10-01T08:49:11.413Z,14.81
2017-10-01T08:50:11.535Z,15.00
2017-10-01T08:51:11.655Z,15.17
2017-10-01T08:52:11.777Z,15.33
2017-10-01T08:53:11.896Z,15.40
2017-10-01T08:54:12.012Z,15.46
2017-10-01T08:55:12.151Z,15.65
2017-10-01T08:56:12.250Z,15.82
2017-10-01T08:57:12.371Z,15.88
2017-10-01T08:58:12.495Z,15.98
2017-10-01T08:59:12.613Z,16.16
2017-10-01T09:00:12.728Z,16.35
2017-10-01T09:01:12.851Z,16.47
2017-10-01T09:02:12.970Z,16.58
2017-10-01T09:03:13.087Z,16.66
2017-10-01T09:04:13.210Z,16.79
2017-10-01T09:05:13.330Z,16.81
2017-10-01T09:06:13.451Z,16.81
2017-10-01T09:07:13.568Z,16.84
2017-10-01T09:08:13.689Z,17.04
2017-10-01T09:09:13.809Z,17.09
2017-10-01T09:10:13.928Z,17.05
2017-10-01T09:11:14.046Z,17.22
2017-10-01T09:12:14.167Z,17.38
2017-10-01T09:13:14.288Z,17.48
2017-10-01T09:14:14.416Z,17.60
2017-10-01T09:15:14.533Z,17.57
2017-10-01T09:16:14.654Z,17.63
2017-10-01T09:17:14.771Z,17.64
2017-10-01T09:18:14.896Z,17.56
2017-10-01T09:19:15.013Z,17.65
2017-10-01T09:20:15.134Z,17.65
2017-10-01T09:21:15.254Z,17.70
2017-10-01T09:22:15.376Z,17.56
2017-10-01T09:23:15.497Z,17.71
2017-10-01T09:24:15.619Z,17.79
2017-10-01T09:25:15.751Z,17.78
2017-10-01T09:26:15.871Z,17.80
2017-10-01T09:27:15.997Z,17.86
2017-10-01T09:28:16.125Z,17.92
2017-10-01T09:29:16.255Z,17.86
2017-10-01T09:30:16.383Z,17.89
2017-10-01T09:31:16.511Z,18.01
2017-10-01T09:32:16.641Z,18.04
2017-10-01T09:33:16.769Z,18.22
2017-10-01T09:34:16.899Z,18.23
2017-10-01T09:35:17.029Z,18.25
2017-10-01T09:36:17.154Z,18.29
2017-10-01T09:37:17.286Z,18.20
2017-10-01T09:38:17.418Z,18.25
2017-10-01T09:39:17.540Z,18.52
2017-10-01T09:40:17.667Z,18.52
2017-10-01T09:41:17.811Z,18.45
2017-10-01T09:42:17.927Z,18.47
2017-10-01T09:43:18.051Z,18.62
2017-10-01T09:44:18.186Z,18.71
2017-10-01T09:45:18.310Z,18.80
2017-10-01T09:46:18.433Z,18.83
2017-10-01T09:47:18.562Z,18.89
2017-10-01T09:48:18.685Z,19.11
2017-10-01T09:49:18.817Z,19.24
2017-10-01T09:50:18.941Z,19.44
2017-10-01T09:51:19.071Z,19.44
2017-10-01T09:52:19.196Z,19.56
2017-10-01T09:53:19.326Z,19.55
2017-10-01T09:54:19.449Z,19.56
2017-10-01T09:55:19.574Z,19.64
2017-10-01T09:56:19.703Z,19.85
2017-10-01T09:57:19.830Z,19.70
2017-10-01T09:58:19.950Z,19.85
2017-10-01T09:59:20.067Z,20.03
2017-10-01T10:00:20.191Z,20.14
2017-10-01T10:01:20.317Z,20.32
2017-10-01T10:02:20.451Z,20.44
2017-10-01T10:03:20.564Z,20.43
2017-10-01T10:04:20.689Z,20.40
2017-10-01T10:05:20.826Z,20.55
2017-10-01T10:06:20.937Z,20.66
2017-10-01T10:07:21.065Z,20.78
2017-10-01T10:08:21.190Z,20.80
2017-10-01T10:09:21.318Z,20.77
2017-10-01T10:10:21.463Z,20.80
2017-10-01T10:11:21.578Z,20.72
2017-10-01T10:12:21.708Z,20.65
2017-10-01T10:13:21.838Z,20.65
2017-10-01T10:14:21.966Z,20.66
2017-10-01T10:15:22.093Z,20.80
2017-10-01T10:16:22.222Z,21.09
2017-10-01T10:17:22.353Z,21.09
2017-10-01T10:18:22.488Z,21.32
2017-10-01T10:19:22.614Z,21.51
2017-10-01T10:20:22.753Z,21.60
2017-10-01T10:21:22.878Z,21.73
2017-10-01T10:22:23.010Z,22.06
2017-10-01T10:23:23.142Z,22.08
2017-10-01T10:24:23.276Z,21.98
2017-10-01T10:25:23.404Z,22.13
2017-10-01T10:26:23.533Z,22.29
2017-10-01T10:27:23.661Z,22.00
2017-10-01T10:28:23.790Z,21.98
2017-10-01T10:29:23.914Z,21.57
2017-10-01T10:30:24.037Z,21.29
2017-10-01T10:31:24.160Z,20.90
2017-10-01T10:32:24.288Z,20.78
2017-10-01T10:33:24.407Z,20.78
2017-10-01T10:34:24.527Z,20.65
2017-10-01T10:35:24.649Z,20.69
2017-10-01T10:36:24.774Z,20.56
2017-10-01T14:19:54.930Z,-40.00
2017-10-01T14:20:54.866Z,-40.00
